createdAt,value
2019-03-31T00:01:48.801Z,25.05
2019-03-31T00:04:17.924Z,25.37
2019-03-31T00:06:47.389Z,26.27
2019-03-31T00:09:17.187Z,25.90
2019-03-31T00:11:49.382Z,27.87
2019-03-31T00:14:18.910Z,26.90
2019-03-31T00:16:48.287Z,26.17
2019-03-31T00:19:17.695Z,27.30
2019-03-31T00:21:46.825Z,29.45
2019-03-31T00:24:15.919Z,28.92
2019-03-31T00:26:46.186Z,30.00
2019-03-31T00:29:16.091Z,28.02
2019-03-31T00:31:45.172Z,29.45
2019-03-31T00:34:15.182Z,27.40
2019-03-31T00:36:44.920Z,28.32
2019-03-31T00:39:15.201Z,28.05
2019-03-31T00:41:44.319Z,28.12
2019-03-31T00:44:17.362Z,31.20
2019-03-31T00:46:47.205Z,28.05
2019-03-31T00:49:17.190Z,25.88
2019-03-31T00:51:46.307Z,31.10
2019-03-31T00:54:18.413Z,28.12
2019-03-31T00:56:47.511Z,27.67
2019-03-31T00:59:16.969Z,25.35
2019-03-31T01:01:57.715Z,27.50
2019-03-31T01:04:29.124Z,26.68
2019-03-31T01:06:59.213Z,25.65
2019-03-31T01:09:30.631Z,27.15
2019-03-31T01:12:03.464Z,29.87
2019-03-31T01:14:32.546Z,28.63
2019-03-31T01:17:02.360Z,30.45
2019-03-31T01:19:31.452Z,30.85
2019-03-31T01:22:01.432Z,30.88
2019-03-31T01:24:33.710Z,32.10
2019-03-31T01:27:03.367Z,29.70
2019-03-31T01:29:34.024Z,30.30
2019-03-31T01:32:03.107Z,30.05
2019-03-31T01:34:32.991Z,33.80
2019-03-31T01:37:02.672Z,33.55
2019-03-31T01:39:33.208Z,33.28
2019-03-31T01:42:02.298Z,34.67
2019-03-31T01:44:50.776Z,33.88
2019-03-31T01:47:19.854Z,34.00
2019-03-31T01:49:52.091Z,29.72
2019-03-31T01:52:21.593Z,32.93
2019-03-31T01:54:52.045Z,28.35
2019-03-31T01:57:22.285Z,28.62
2019-03-31T01:59:55.571Z,27.37
2019-03-31T02:02:28.160Z,30.50
2019-03-31T02:05:00.577Z,31.05
2019-03-31T02:07:33.001Z,29.72
2019-03-31T02:10:02.149Z,28.67
2019-03-31T02:12:34.351Z,30.08
2019-03-31T02:15:07.266Z,32.90
2019-03-31T02:17:36.333Z,28.30
2019-03-31T02:20:06.917Z,28.25
2019-03-31T02:22:36.299Z,34.23
2019-03-31T02:25:09.677Z,31.37
2019-03-31T02:27:44.007Z,32.23
2019-03-31T02:30:13.241Z,33.53
2019-03-31T02:32:42.307Z,33.80
2019-03-31T02:35:11.427Z,38.15
2019-03-31T02:37:41.670Z,38.33
2019-03-31T02:40:12.849Z,32.67
2019-03-31T02:42:42.462Z,29.67
2019-03-31T02:45:11.867Z,35.70
2019-03-31T02:47:40.977Z,37.08
2019-03-31T02:50:15.552Z,36.73
2019-03-31T02:52:44.668Z,35.73
2019-03-31T02:55:13.783Z,37.90
2019-03-31T02:57:45.970Z,32.80
2019-03-31T03:00:16.050Z,33.92
2019-03-31T03:02:46.126Z,33.88
2019-03-31T03:05:19.934Z,34.73
2019-03-31T03:07:47.163Z,35.78
2019-03-31T03:10:20.102Z,33.33
2019-03-31T03:12:49.894Z,34.13
2019-03-31T03:15:26.974Z,34.63
2019-03-31T03:17:56.311Z,36.38
2019-03-31T03:20:25.725Z,38.90
2019-03-31T03:22:54.808Z,35.45
2019-03-31T03:25:24.310Z,33.30
2019-03-31T03:27:53.424Z,39.55
2019-03-31T03:30:22.707Z,38.55
2019-03-31T03:33:13.380Z,39.35
2019-03-31T03:35:23.865Z,40.63
2019-03-31T03:37:52.929Z,42.55
2019-03-31T03:40:23.896Z,44.15
2019-03-31T03:42:52.969Z,43.40
2019-03-31T03:45:25.531Z,44.18
2019-03-31T03:47:57.027Z,42.20
2019-03-31T03:50:27.191Z,46.10
2019-03-31T03:52:56.290Z,41.73
2019-03-31T03:55:29.062Z,43.65
2019-03-31T03:57:58.170Z,44.83
2019-03-31T04:00:27.305Z,43.33
2019-03-31T04:02:56.759Z,42.00
2019-03-31T04:05:25.904Z,42.40
2019-03-31T04:07:55.578Z,41.28
2019-03-31T04:11:14.600Z,42.43
2019-03-31T04:13:44.451Z,38.00
2019-03-31T04:16:13.853Z,40.40
2019-03-31T04:18:45.900Z,44.63
2019-03-31T04:21:15.044Z,41.98
2019-03-31T04:23:44.644Z,43.73
2019-03-31T04:26:13.744Z,43.85
2019-03-31T04:28:43.256Z,42.43
2019-03-31T04:31:15.447Z,45.95
2019-03-31T04:33:52.183Z,49.55
2019-03-31T04:36:21.779Z,48.17
2019-03-31T04:38:51.803Z,50.08
2019-03-31T04:41:22.197Z,46.35
2019-03-31T04:43:52.440Z,48.00
2019-03-31T04:46:21.967Z,46.40
2019-03-31T04:48:51.429Z,46.30
2019-03-31T04:51:20.874Z,43.08
2019-03-31T04:53:50.671Z,41.63
2019-03-31T04:56:19.820Z,43.28
2019-03-31T04:58:49.122Z,42.60
2019-03-31T05:01:18.607Z,41.65
2019-03-31T05:04:03.463Z,41.58
2019-03-31T05:06:23.090Z,39.80
2019-03-31T05:08:52.787Z,40.58
2019-03-31T05:11:25.320Z,39.13
2019-03-31T05:13:54.789Z,40.52
2019-03-31T05:16:24.320Z,44.65
2019-03-31T05:18:53.396Z,42.53
2019-03-31T05:21:22.500Z,46.00
2019-03-31T05:23:52.303Z,44.55
2019-03-31T05:26:22.073Z,44.20
2019-03-31T05:28:51.896Z,42.62
2019-03-31T05:31:22.077Z,44.40
2019-03-31T05:33:51.497Z,46.25
2019-03-31T05:36:20.859Z,43.78
2019-03-31T05:38:49.931Z,42.13
2019-03-31T05:41:19.059Z,43.20
2019-03-31T05:43:49.300Z,42.60
2019-03-31T05:46:23.600Z,51.65
2019-03-31T05:48:55.797Z,49.27
2019-03-31T05:51:29.011Z,51.25
2019-03-31T05:53:58.400Z,55.25
2019-03-31T05:56:29.746Z,59.75
2019-03-31T05:58:59.560Z,58.28
2019-03-31T06:01:29.058Z,59.48
2019-03-31T06:04:00.805Z,56.33
2019-03-31T06:06:30.217Z,52.98
2019-03-31T06:08:59.327Z,53.15
2019-03-31T06:11:28.449Z,52.48
2019-03-31T06:13:57.583Z,50.92
2019-03-31T06:16:26.705Z,50.43
2019-03-31T06:18:56.212Z,49.03
2019-03-31T06:21:25.303Z,47.60
2019-03-31T06:23:57.484Z,45.38
2019-03-31T06:26:26.563Z,43.42
2019-03-31T06:28:56.106Z,44.90
2019-03-31T06:31:25.564Z,43.17
2019-03-31T06:33:54.674Z,48.45
2019-03-31T06:36:23.766Z,45.73
2019-03-31T06:38:52.887Z,43.38
2019-03-31T06:41:22.249Z,42.90
2019-03-31T06:43:51.361Z,36.48
2019-03-31T06:46:20.745Z,38.95
2019-03-31T06:48:50.188Z,38.33
2019-03-31T06:51:20.408Z,39.70
2019-03-31T06:53:52.016Z,39.60
2019-03-31T06:56:21.113Z,37.85
2019-03-31T06:58:50.254Z,37.53
2019-03-31T07:01:23.307Z,37.20
2019-03-31T07:03:52.739Z,38.08
2019-03-31T07:06:22.239Z,36.42
2019-03-31T07:08:54.585Z,36.00
2019-03-31T07:11:23.979Z,37.08
2019-03-31T07:13:53.090Z,37.80
2019-03-31T07:16:22.176Z,35.63
2019-03-31T07:18:51.293Z,36.10
2019-03-31T07:21:20.399Z,36.23
2019-03-31T07:23:49.526Z,35.43
2019-03-31T07:26:18.600Z,35.52
2019-03-31T07:28:47.897Z,34.50
2019-03-31T07:31:23.721Z,33.23
2019-03-31T07:34:03.581Z,32.98
2019-03-31T07:36:34.467Z,32.13
2019-03-31T07:39:07.350Z,31.05
2019-03-31T07:41:37.391Z,30.50
2019-03-31T07:44:06.809Z,30.12
2019-03-31T07:46:35.888Z,27.80
2019-03-31T07:49:05.717Z,28.27
2019-03-31T07:51:37.516Z,24.92
2019-03-31T07:54:05.628Z,26.00
2019-03-31T07:56:35.184Z,24.75
2019-03-31T07:59:05.275Z,26.05
2019-03-31T08:01:36.889Z,24.92
2019-03-31T08:04:08.070Z,21.82
2019-03-31T08:06:40.588Z,20.88
2019-03-31T08:09:10.118Z,23.12
2019-03-31T08:11:39.949Z,23.62
2019-03-31T08:14:12.512Z,22.52
2019-03-31T08:16:42.303Z,19.45
2019-03-31T08:19:11.402Z,18.75
2019-03-31T08:21:43.768Z,20.57
2019-03-31T08:24:16.254Z,20.23
2019-03-31T08:26:45.350Z,20.80
2019-03-31T08:29:35.671Z,18.50
2019-03-31T08:32:07.305Z,15.63
2019-03-31T08:34:50.816Z,12.23
2019-03-31T08:37:46.104Z,11.48
2019-03-31T08:40:15.167Z,11.35
2019-03-31T08:42:47.759Z,9.65
2019-03-31T08:45:18.480Z,10.55
2019-03-31T08:47:48.158Z,11.00
2019-03-31T08:50:17.264Z,10.85
2019-03-31T08:52:47.435Z,9.95
2019-03-31T08:55:16.532Z,9.33
2019-03-31T08:57:45.971Z,9.98
2019-03-31T09:00:49.689Z,9.53
2019-03-31T09:03:18.777Z,10.83
2019-03-31T09:06:01.069Z,9.30
2019-03-31T09:08:19.421Z,11.45
2019-03-31T09:10:49.301Z,9.93
2019-03-31T09:13:22.141Z,11.20
2019-03-31T09:15:51.633Z,11.70
2019-03-31T09:18:21.213Z,11.38
2019-03-31T09:20:50.655Z,11.93
2019-03-31T09:23:19.764Z,12.43
2019-03-31T09:25:49.547Z,13.70
2019-03-31T09:28:19.411Z,14.18
2019-03-31T09:30:51.841Z,12.68
2019-03-31T09:33:20.962Z,13.43
2019-03-31T09:35:51.211Z,14.53
2019-03-31T09:38:21.057Z,14.00
2019-03-31T09:40:52.845Z,13.83
2019-03-31T09:43:28.348Z,13.65
2019-03-31T09:46:06.203Z,12.75
2019-03-31T09:48:35.310Z,11.83
2019-03-31T09:51:09.219Z,11.05
2019-03-31T09:53:38.295Z,11.35
2019-03-31T09:56:14.999Z,12.40
2019-03-31T09:58:43.198Z,11.38
2019-03-31T10:01:12.324Z,11.55
2019-03-31T10:03:41.418Z,10.80
2019-03-31T10:06:11.377Z,11.48
2019-03-31T10:08:46.698Z,10.28
2019-03-31T10:11:16.085Z,9.45
2019-03-31T10:13:47.122Z,8.88
2019-03-31T10:16:16.866Z,8.13
2019-03-31T10:18:46.675Z,7.12
2019-03-31T10:21:25.073Z,6.83
2019-03-31T10:23:54.513Z,7.08
2019-03-31T10:26:31.865Z,6.95
2019-03-31T10:28:56.735Z,6.83
2019-03-31T10:31:26.159Z,7.00
2019-03-31T10:33:58.405Z,5.70
2019-03-31T10:36:27.467Z,6.60
2019-03-31T10:38:56.777Z,6.87
2019-03-31T10:41:31.041Z,7.05
2019-03-31T10:44:00.858Z,6.08
2019-03-31T10:46:29.940Z,5.83
2019-03-31T10:48:59.366Z,5.70
2019-03-31T10:51:28.872Z,5.42
2019-03-31T10:53:58.442Z,5.20
2019-03-31T10:56:28.255Z,5.20
2019-03-31T10:58:58.243Z,5.30
2019-03-31T11:01:30.473Z,5.05
2019-03-31T11:03:59.541Z,5.10
2019-03-31T11:06:28.724Z,6.62
2019-03-31T11:09:00.349Z,5.70
2019-03-31T11:11:31.997Z,5.45
2019-03-31T11:14:01.732Z,5.28
2019-03-31T11:16:36.287Z,5.42
2019-03-31T11:19:05.369Z,4.90
2019-03-31T11:21:42.420Z,6.33
2019-03-31T11:24:11.767Z,5.62
2019-03-31T11:26:40.881Z,5.97
2019-03-31T11:29:10.286Z,6.22
2019-03-31T11:31:39.430Z,5.53
2019-03-31T11:34:10.916Z,5.72
2019-03-31T11:36:40.049Z,5.30
2019-03-31T11:39:09.120Z,6.00
2019-03-31T11:41:38.254Z,5.83
2019-03-31T11:44:07.711Z,5.85
2019-03-31T11:46:40.467Z,5.60
2019-03-31T11:49:09.564Z,5.25
2019-03-31T11:51:39.345Z,4.62
2019-03-31T11:54:08.718Z,5.40
2019-03-31T11:56:38.183Z,6.33
2019-03-31T11:59:07.565Z,5.55
2019-03-31T12:01:40.074Z,5.47
2019-03-31T12:04:09.851Z,4.78
2019-03-31T12:06:42.343Z,4.50
2019-03-31T12:09:11.425Z,4.65
2019-03-31T12:11:45.534Z,4.87
2019-03-31T12:14:13.393Z,4.27
2019-03-31T12:16:46.190Z,4.30
2019-03-31T12:19:17.482Z,4.33
2019-03-31T12:21:46.860Z,4.05
2019-03-31T12:24:16.233Z,4.58
2019-03-31T12:26:45.345Z,3.80
2019-03-31T12:29:14.923Z,3.98
2019-03-31T12:31:44.037Z,3.10
2019-03-31T12:34:13.128Z,3.35
2019-03-31T12:36:42.269Z,2.90
2019-03-31T12:39:15.333Z,3.08
2019-03-31T12:41:44.434Z,2.67
2019-03-31T12:44:16.232Z,2.70
2019-03-31T12:46:45.659Z,2.83
2019-03-31T12:49:14.770Z,2.80
2019-03-31T12:51:43.910Z,3.22
2019-03-31T12:54:13.175Z,2.58
2019-03-31T12:56:42.292Z,2.75
2019-03-31T12:59:11.758Z,2.80
2019-03-31T13:01:41.180Z,2.58
2019-03-31T13:04:10.682Z,2.55
2019-03-31T13:06:43.145Z,2.08
2019-03-31T13:09:12.232Z,2.70
2019-03-31T13:11:42.055Z,3.02
2019-03-31T13:14:11.570Z,2.02
2019-03-31T13:16:40.960Z,2.25
2019-03-31T13:19:10.058Z,2.27
2019-03-31T13:21:39.483Z,1.80
2019-03-31T13:24:08.564Z,2.05
2019-03-31T13:26:37.666Z,1.98
2019-03-31T13:29:06.750Z,1.70
2019-03-31T13:31:36.200Z,2.30
2019-03-31T13:34:05.839Z,3.37
2019-03-31T13:36:34.950Z,2.00
2019-03-31T13:39:06.015Z,1.55
2019-03-31T13:41:35.153Z,2.10
2019-03-31T13:44:07.552Z,2.15
2019-03-31T13:46:37.355Z,2.47
2019-03-31T13:49:06.496Z,2.05
2019-03-31T13:51:36.305Z,2.22
2019-03-31T13:54:05.454Z,2.00
2019-03-31T13:56:34.957Z,1.90
2019-03-31T13:59:04.668Z,2.40
2019-03-31T14:01:34.413Z,2.37
2019-03-31T14:04:03.940Z,1.90
2019-03-31T14:06:33.453Z,2.50
2019-03-31T14:09:02.649Z,2.83
2019-03-31T14:11:51.567Z,2.00
2019-03-31T14:14:21.350Z,2.22
2019-03-31T14:16:50.459Z,2.35
2019-03-31T14:19:19.882Z,2.80
2019-03-31T14:21:49.112Z,2.40
2019-03-31T14:24:18.232Z,2.60
2019-03-31T14:26:47.924Z,2.72
2019-03-31T14:29:17.842Z,2.25
2019-03-31T14:31:47.411Z,2.35
2019-03-31T14:34:17.261Z,2.37
2019-03-31T14:36:46.398Z,2.42
2019-03-31T14:39:17.252Z,2.80
2019-03-31T14:41:47.207Z,2.27
2019-03-31T14:44:17.374Z,2.27
2019-03-31T14:46:47.141Z,2.80
2019-03-31T14:49:16.652Z,2.25
2019-03-31T14:51:48.848Z,2.72
2019-03-31T14:54:21.342Z,2.35
2019-03-31T14:56:50.670Z,2.02
2019-03-31T14:59:20.096Z,2.40
2019-03-31T15:01:49.214Z,2.80
2019-03-31T15:04:18.334Z,2.10
2019-03-31T15:06:47.425Z,2.55
2019-03-31T15:09:19.898Z,2.22
2019-03-31T15:11:48.979Z,2.98
2019-03-31T15:14:18.098Z,2.50
2019-03-31T15:16:50.237Z,2.75
2019-03-31T15:19:19.350Z,2.87
2019-03-31T15:21:48.475Z,2.20
2019-03-31T15:24:17.560Z,2.20
2019-03-31T15:26:46.649Z,3.33
2019-03-31T15:29:16.084Z,2.80
2019-03-31T15:31:49.855Z,5.47
2019-03-31T15:36:49.003Z,3.10
2019-03-31T15:39:23.804Z,2.25
2019-03-31T15:41:53.165Z,2.08
2019-03-31T15:44:23.100Z,2.58
2019-03-31T15:46:56.861Z,2.95
2019-03-31T15:51:54.196Z,2.17
2019-03-31T15:54:23.284Z,2.25
2019-03-31T15:56:53.065Z,2.50
2019-03-31T15:59:22.633Z,2.10
2019-03-31T16:01:51.993Z,2.35
2019-03-31T16:04:21.091Z,2.45
2019-03-31T16:06:50.883Z,1.87
2019-03-31T16:09:23.681Z,2.35
2019-03-31T16:11:53.880Z,2.30
2019-03-31T16:14:22.202Z,2.20
2019-03-31T16:16:52.603Z,2.15
2019-03-31T16:19:21.526Z,2.30
2019-03-31T16:21:55.135Z,2.17
2019-03-31T16:24:37.615Z,2.12
2019-03-31T16:27:08.065Z,2.37
2019-03-31T16:29:36.630Z,2.25
2019-03-31T16:32:06.165Z,2.40
2019-03-31T16:34:35.110Z,2.33
2019-03-31T16:37:05.211Z,1.92
2019-03-31T16:39:37.763Z,2.80
2019-03-31T16:42:05.183Z,1.90
2019-03-31T16:44:38.769Z,2.42
2019-03-31T16:47:07.695Z,2.10
2019-03-31T16:49:36.604Z,2.08
2019-03-31T16:52:06.719Z,2.60
2019-03-31T16:54:37.885Z,2.12
2019-03-31T16:57:07.282Z,2.33
2019-03-31T16:59:40.454Z,2.65
2019-03-31T17:02:09.419Z,1.77
2019-03-31T17:04:38.462Z,2.00
2019-03-31T17:07:07.397Z,2.30
2019-03-31T17:09:51.303Z,2.08
2019-03-31T17:12:12.611Z,1.90
2019-03-31T17:14:46.205Z,2.52
2019-03-31T17:17:20.188Z,2.27
2019-03-31T17:19:49.639Z,2.27
2019-03-31T17:22:23.720Z,1.67
2019-03-31T17:24:53.974Z,2.25
2019-03-31T17:27:26.215Z,1.82
2019-03-31T17:30:01.221Z,1.72
2019-03-31T17:32:44.779Z,2.45
2019-03-31T17:35:20.717Z,2.08
2019-03-31T17:37:51.043Z,2.10
2019-03-31T17:40:35.847Z,2.22
2019-03-31T17:43:06.209Z,2.25
2019-03-31T17:45:37.607Z,2.00
2019-03-31T17:48:06.163Z,2.00
2019-03-31T17:50:35.311Z,2.00
2019-03-31T17:53:06.816Z,1.80
2019-03-31T17:55:37.715Z,1.85
2019-03-31T17:58:09.655Z,1.50
2019-03-31T18:00:39.603Z,2.10
2019-03-31T18:03:08.751Z,1.57
2019-03-31T18:05:37.505Z,2.05
2019-03-31T18:08:11.265Z,1.80
2019-03-31T18:10:41.853Z,1.47
2019-03-31T18:13:11.092Z,2.10
2019-03-31T18:15:41.032Z,1.80
2019-03-31T18:18:09.758Z,1.85
2019-03-31T18:20:38.515Z,2.37
2019-03-31T18:23:07.057Z,1.32
2019-03-31T18:25:40.267Z,1.65
2019-03-31T18:28:13.470Z,1.60
2019-03-31T18:30:45.817Z,1.60
2019-03-31T18:33:16.527Z,1.40
2019-03-31T18:35:45.273Z,1.70
2019-03-31T18:38:15.371Z,1.50
2019-03-31T18:40:44.266Z,2.52
2019-03-31T18:43:14.184Z,1.98
2019-03-31T18:45:45.626Z,1.72
2019-03-31T18:48:16.629Z,2.52
2019-03-31T18:50:45.189Z,1.50
2019-03-31T18:53:18.118Z,2.33
2019-03-31T18:56:16.299Z,1.67
2019-03-31T18:58:57.912Z,1.90
2019-03-31T19:01:59.258Z,1.87
2019-03-31T19:04:41.976Z,2.72
2019-03-31T19:07:55.501Z,3.47
2019-03-31T19:10:48.792Z,2.90
2019-03-31T19:13:19.305Z,2.87
2019-03-31T19:16:09.851Z,2.95
2019-03-31T19:19:00.175Z,3.40
2019-03-31T19:22:08.762Z,2.83
2019-03-31T19:24:50.174Z,2.62
2019-03-31T19:27:34.581Z,3.52
2019-03-31T19:30:34.889Z,2.40
2019-03-31T19:33:20.155Z,2.40
2019-03-31T19:36:06.296Z,2.98
2019-03-31T19:38:46.215Z,2.35
2019-03-31T19:41:53.309Z,2.92
2019-03-31T19:44:48.499Z,3.02
2019-03-31T19:47:28.169Z,3.02
2019-03-31T19:50:11.070Z,3.77
2019-03-31T19:52:55.935Z,2.98
2019-03-31T19:55:45.707Z,2.65
2019-03-31T19:58:33.848Z,2.47
2019-03-31T20:01:15.483Z,2.70
2019-03-31T20:04:13.528Z,2.90
2019-03-31T20:06:49.299Z,2.70
2019-03-31T20:09:40.294Z,2.52
2019-03-31T20:12:40.408Z,3.00
2019-03-31T20:15:24.770Z,3.30
2019-03-31T20:18:12.709Z,2.47
2019-03-31T20:20:53.992Z,2.42
2019-03-31T20:23:54.269Z,2.52
2019-03-31T20:26:36.425Z,2.60
2019-03-31T20:29:10.038Z,2.70
2019-03-31T20:34:39.437Z,2.47
2019-03-31T20:37:17.568Z,3.02
2019-03-31T20:40:01.090Z,2.77
2019-03-31T20:42:52.105Z,2.80
2019-03-31T20:45:21.230Z,2.90
2019-03-31T20:47:50.386Z,2.55
2019-03-31T20:50:19.868Z,2.80
2019-03-31T20:52:48.795Z,3.22
2019-03-31T20:55:19.412Z,2.75
2019-03-31T20:57:50.143Z,2.75
2019-03-31T21:00:19.528Z,2.52
2019-03-31T21:02:50.580Z,3.12
2019-03-31T21:05:22.730Z,2.62
2019-03-31T21:07:51.643Z,3.58
2019-03-31T21:10:20.717Z,2.67
2019-03-31T21:13:13.475Z,3.45
2019-03-31T21:15:42.092Z,2.72
2019-03-31T21:18:19.368Z,2.60
2019-03-31T21:20:48.318Z,2.65
2019-03-31T21:23:19.036Z,2.98
2019-03-31T21:25:49.899Z,2.83
2019-03-31T21:28:22.397Z,2.92
2019-03-31T21:30:52.320Z,2.60
2019-03-31T21:33:24.496Z,2.33
2019-03-31T21:35:57.806Z,2.80
2019-03-31T21:38:26.765Z,2.58
2019-03-31T21:40:55.322Z,2.75
2019-03-31T21:43:29.030Z,2.90
2019-03-31T21:45:59.574Z,2.62
2019-03-31T21:48:28.383Z,2.33
2019-03-31T21:50:57.151Z,2.67
2019-03-31T21:53:29.642Z,2.58
2019-03-31T21:55:58.383Z,2.98
2019-03-31T21:58:32.087Z,2.52
2019-03-31T22:01:01.160Z,2.72
2019-03-31T22:03:30.111Z,3.27
2019-03-31T22:05:59.002Z,1.92
2019-03-31T22:08:28.239Z,2.35
2019-03-31T22:10:57.702Z,2.30
2019-03-31T22:13:26.461Z,2.27
2019-03-31T22:15:55.011Z,2.05
2019-03-31T22:18:25.533Z,2.00
2019-03-31T22:20:56.052Z,3.55
2019-03-31T22:23:26.946Z,2.20
2019-03-31T22:25:55.854Z,2.90
2019-03-31T22:28:29.626Z,2.70
2019-03-31T22:31:02.909Z,3.70
2019-03-31T22:33:33.016Z,2.20
2019-03-31T22:36:19.417Z,2.35
2019-03-31T22:38:56.796Z,2.62
2019-03-31T22:41:25.347Z,2.70
2019-03-31T22:43:55.290Z,2.27
2019-03-31T22:46:24.200Z,2.22
2019-03-31T22:48:57.449Z,2.83
2019-03-31T22:51:29.327Z,2.17
2019-03-31T22:53:57.877Z,2.45
2019-03-31T22:56:32.250Z,2.60
2019-03-31T22:59:09.628Z,2.50
2019-03-31T23:01:37.119Z,2.30
2019-03-31T23:04:08.018Z,2.52
2019-03-31T23:06:36.584Z,2.42
2019-03-31T23:09:10.958Z,2.15
2019-03-31T23:11:39.939Z,2.20
2019-03-31T23:14:10.635Z,2.37
2019-03-31T23:16:39.221Z,2.33
2019-03-31T23:19:11.313Z,2.30
2019-03-31T23:21:41.833Z,2.15
2019-03-31T23:24:10.402Z,1.80
2019-03-31T23:26:41.522Z,2.47
2019-03-31T23:29:11.728Z,3.00
2019-03-31T23:31:44.956Z,2.55
2019-03-31T23:34:13.708Z,2.15
2019-03-31T23:36:42.925Z,2.37
2019-03-31T23:39:11.906Z,2.72
2019-03-31T23:41:41.995Z,2.35
2019-03-31T23:44:11.068Z,2.87
2019-03-31T23:46:40.269Z,2.40
2019-03-31T23:49:10.827Z,2.27
2019-03-31T23:51:44.506Z,2.37
2019-03-31T23:54:17.826Z,2.00
2019-03-31T23:56:50.079Z,2.67
2019-03-31T23:59:18.841Z,2.37
